Time;durP1;ratioP1;P1;durP2;ratioP2;P2;SDS_P1;SDS_P2;PMS_P1;PMS_P2;Temp;Humidity;BMP_temperature;BMP_pressure;BME280_temperature;BME280_humidity;BME280_pressure;Samples;Min_cycle;Max_cycle;Signal;HPM_P1;HPM_P2
2021/03/24 00:01:44;;;;;;;15.68;10.18;;;17.70;98.90;;;;;;5057933;28;20045;-60
2021/03/24 00:04:10;;;;;;;15.43;10.02;;;17.70;99.10;;;;;;5058358;28;20366;-60
2021/03/24 00:06:36;;;;;;;18.77;10.52;;;17.70;99.00;;;;;;5058173;28;20384;-60
2021/03/24 00:09:06;;;;;;;13.27;9.77;;;17.70;99.00;;;;;;5058039;28;20041;-60
2021/03/24 00:11:31;;;;;;;13.85;9.60;;;17.60;99.10;;;;;;5057584;28;20057;-60
2021/03/24 00:13:57;;;;;;;12.05;9.73;;;17.60;99.10;;;;;;5057633;28;20484;-60
2021/03/24 00:16:23;;;;;;;12.93;10.18;;;17.60;99.10;;;;;;5058070;28;20021;-60
2021/03/24 00:18:48;;;;;;;14.30;10.93;;;17.50;99.10;;;;;;5058382;28;20457;-60
2021/03/24 00:21:14;;;;;;;14.85;10.00;;;17.50;99.20;;;;;;5058088;28;20021;-59
2021/03/24 00:23:39;;;;;;;17.02;10.98;;;17.50;99.20;;;;;;5057718;28;20029;-59
2021/03/24 00:38:47;;;;;;;15.35;11.90;;;17.50;99.00;;;;;;5065451;28;20435;-60
2021/03/24 00:41:13;;;;;;;14.98;12.13;;;17.40;99.70;;;;;;5065246;28;20036;-60
2021/03/24 00:43:39;;;;;;;14.85;11.32;;;17.40;99.80;;;;;;5065363;27;20039;-60
2021/03/24 00:46:04;;;;;;;15.77;11.85;;;17.40;99.80;;;;;;5064846;28;20021;-60
2021/03/24 00:48:33;;;;;;;15.18;11.40;;;17.40;99.80;;;;;;5065402;28;20040;-60
2021/03/24 00:51:00;;;;;;;16.63;11.68;;;17.40;99.90;;;;;;5064932;28;20059;-59
2021/03/24 00:53:26;;;;;;;16.70;12.45;;;17.30;99.90;;;;;;5064836;28;20040;-60
2021/03/24 00:55:52;;;;;;;16.13;12.65;;;17.30;99.90;;;;;;5065322;28;20376;-60
2021/03/24 00:58:19;;;;;;;15.85;12.13;;;17.30;99.90;;;;;;5065011;28;20120;-60
2021/03/24 01:00:46;;;;;;;15.85;11.40;;;17.30;99.90;;;;;;5064663;28;20033;-60
2021/03/24 01:03:12;;;;;;;21.63;12.73;;;17.30;99.90;;;;;;5065042;28;20051;-60
2021/03/24 01:05:40;;;;;;;18.65;12.98;;;17.30;99.90;;;;;;5064831;28;20033;-60
2021/03/24 01:08:09;;;;;;;15.50;12.55;;;17.20;99.90;;;;;;5064904;28;20425;-60
2021/03/24 01:10:37;;;;;;;16.33;12.30;;;17.20;99.90;;;;;;5064353;27;20475;-59
2021/03/24 01:13:03;;;;;;;16.98;12.70;;;17.20;99.90;;;;;;5065083;28;20040;-60
2021/03/24 01:15:29;;;;;;;19.17;12.77;;;17.20;99.90;;;;;;5064683;28;20070;-60
2021/03/24 01:17:55;;;;;;;18.42;13.15;;;17.20;99.90;;;;;;5064892;28;20033;-60
2021/03/24 01:20:26;;;;;;;18.05;13.25;;;17.10;99.90;;;;;;5059168;27;20391;-60
2021/03/24 01:22:52;;;;;;;16.60;13.38;;;17.10;99.90;;;;;;5052464;28;20484;-60
2021/03/24 01:25:18;;;;;;;17.77;13.68;;;17.10;99.90;;;;;;5061481;28;20071;-60
2021/03/24 01:27:43;;;;;;;18.10;13.60;;;17.10;99.90;;;;;;5064624;28;20110;-60
2021/03/24 01:30:10;;;;;;;19.55;13.98;;;17.10;99.90;;;;;;5058527;28;20021;-60
2021/03/24 01:32:36;;;;;;;17.35;12.43;;;17.10;99.90;;;;;;5058930;28;20033;-61
2021/03/24 01:35:03;;;;;;;16.67;13.40;;;17.10;99.90;;;;;;5064428;28;20384;-60
2021/03/24 01:37:28;;;;;;;19.27;14.40;;;17.10;99.90;;;;;;5063526;28;20487;-60
2021/03/24 01:39:54;;;;;;;18.55;14.50;;;17.00;99.90;;;;;;5049720;28;20160;-59
2021/03/24 01:42:19;;;;;;;21.70;14.15;;;17.10;99.90;;;;;;5050113;28;20024;-60
2021/03/24 01:45:00;;;;;;;18.48;13.75;;;17.10;99.90;;;;;;5050651;28;20021;-59
2021/03/24 01:47:28;;;;;;;19.08;13.90;;;17.00;99.90;;;;;;5051045;28;20134;-60
2021/03/24 01:49:54;;;;;;;19.92;14.15;;;17.00;99.90;;;;;;5050320;28;20108;-60
2021/03/24 01:52:20;;;;;;;19.27;15.27;;;17.00;99.90;;;;;;5050487;28;20613;-59
2021/03/24 01:54:46;;;;;;;18.98;14.68;;;17.00;99.90;;;;;;5050490;28;20035;-59
2021/03/24 01:57:16;;;;;;;19.05;14.65;;;17.00;99.90;;;;;;5051033;28;20025;-60
2021/03/24 01:59:42;;;;;;;23.08;14.52;;;17.00;99.90;;;;;;5047240;28;20017;-60
2021/03/24 02:02:30;;;;;;;27.38;15.15;;;17.00;99.90;;;;;;5050615;28;20085;-60
2021/03/24 02:04:56;;;;;;;20.70;14.88;;;17.00;99.90;;;;;;5030756;28;20029;-61
2021/03/24 02:07:52;;;;;;;26.42;15.57;;;17.00;99.90;;;;;;5030903;28;20109;-60
2021/03/24 02:10:26;;;;;;;21.35;15.48;;;16.90;99.90;;;;;;5038805;28;20030;-60
2021/03/24 02:13:03;;;;;;;18.33;15.23;;;16.90;99.90;;;;;;5049677;28;20025;-61
2021/03/24 02:15:35;;;;;;;22.40;15.07;;;16.90;99.90;;;;;;5040883;28;20090;-60
2021/03/24 02:18:01;;;;;;;20.80;15.38;;;16.90;99.90;;;;;;5030919;28;20046;-60
2021/03/24 02:20:37;;;;;;;22.20;15.88;;;16.80;99.90;;;;;;5036941;28;20057;-60
2021/03/24 02:23:20;;;;;;;21.88;15.48;;;16.80;99.90;;;;;;5030791;28;20040;-59
2021/03/24 02:26:10;;;;;;;20.42;15.75;;;16.90;99.90;;;;;;5030640;28;20499;-60
2021/03/24 02:28:36;;;;;;;19.98;15.43;;;16.80;99.90;;;;;;5033547;28;20040;-59
2021/03/24 02:31:04;;;;;;;23.27;16.50;;;16.80;99.90;;;;;;5048447;28;20021;-60
2021/03/24 02:33:37;;;;;;;20.30;15.45;;;16.80;99.90;;;;;;5047995;28;20033;-60
2021/03/24 02:36:07;;;;;;;21.40;15.48;;;16.80;99.90;;;;;;5049957;28;20151;-59
2021/03/24 02:38:35;;;;;;;20.60;15.63;;;16.80;99.90;;;;;;5049993;28;20033;-60
2021/03/24 02:41:02;;;;;;;19.17;15.20;;;16.80;99.90;;;;;;5049317;28;20051;-60
2021/03/24 02:43:30;;;;;;;23.58;15.05;;;16.80;99.90;;;;;;5050391;28;20029;-59
2021/03/24 02:45:58;;;;;;;20.70;14.70;;;16.80;99.90;;;;;;5049668;27;20025;-60
2021/03/24 02:48:28;;;;;;;21.63;15.20;;;16.80;99.90;;;;;;5031201;28;20069;-59
2021/03/24 02:50:56;;;;;;;21.38;15.02;;;16.70;99.90;;;;;;5047676;28;20025;-59
2021/03/24 02:53:23;;;;;;;19.05;14.98;;;16.70;99.90;;;;;;5049909;27;20025;-59
2021/03/24 02:55:50;;;;;;;20.73;14.88;;;16.70;99.90;;;;;;5050150;28;20502;-59
2021/03/24 02:58:16;;;;;;;19.58;14.48;;;16.70;99.90;;;;;;5049570;28;20104;-59
2021/03/24 03:00:41;;;;;;;19.42;14.90;;;16.70;99.90;;;;;;5048766;28;20107;-60
2021/03/24 03:03:32;;;;;;;21.85;15.63;;;16.70;99.90;;;;;;5036904;28;20044;-60
2021/03/24 03:06:01;;;;;;;19.67;14.63;;;16.60;99.90;;;;;;5030099;28;20060;-60
2021/03/24 03:08:29;;;;;;;23.00;15.23;;;16.60;99.90;;;;;;5030268;28;20388;-60
2021/03/24 03:11:03;;;;;;;19.33;14.30;;;16.60;99.90;;;;;;5041243;28;20352;-60
2021/03/24 03:13:36;;;;;;;20.40;14.98;;;16.60;99.90;;;;;;5049782;28;20060;-59
2021/03/24 03:16:16;;;;;;;21.48;14.60;;;16.60;99.90;;;;;;5049465;28;20256;-60
2021/03/24 03:18:50;;;;;;;21.42;14.32;;;16.60;99.90;;;;;;5049455;28;20033;-60
2021/03/24 03:21:23;;;;;;;19.20;14.57;;;16.60;99.90;;;;;;5047553;28;20029;-60
2021/03/24 03:23:50;;;;;;;17.85;14.48;;;16.50;99.90;;;;;;5049688;28;20040;-60
2021/03/24 03:26:21;;;;;;;21.27;14.40;;;16.50;99.90;;;;;;5049539;28;20068;-60
2021/03/24 03:28:53;;;;;;;20.20;15.00;;;16.50;99.90;;;;;;5048930;28;20036;-60
2021/03/24 03:31:23;;;;;;;19.77;14.85;;;16.50;99.90;;;;;;5045031;28;20353;-59
2021/03/24 03:33:51;;;;;;;17.17;14.23;;;16.50;99.90;;;;;;5048703;28;20029;-59
2021/03/24 03:36:17;;;;;;;19.10;14.77;;;16.50;99.90;;;;;;5049562;28;20059;-60
2021/03/24 03:38:45;;;;;;;18.23;14.63;;;16.50;99.90;;;;;;5048734;28;20052;-60
2021/03/24 03:41:14;;;;;;;20.42;14.02;;;16.50;99.90;;;;;;5047499;28;20041;-60
2021/03/24 03:43:41;;;;;;;20.20;14.30;;;16.50;99.90;;;;;;5049088;28;20021;-60
2021/03/24 03:46:08;;;;;;;20.13;14.05;;;16.50;99.90;;;;;;5048982;28;20024;-60
2021/03/24 03:48:34;;;;;;;19.30;14.27;;;16.40;99.90;;;;;;5049260;28;20029;-61
2021/03/24 03:51:03;;;;;;;18.25;14.35;;;16.40;99.90;;;;;;5048273;28;20469;-61
2021/03/24 03:53:54;;;;;;;18.33;14.52;;;16.40;99.90;;;;;;5048983;28;20472;-60
2021/03/24 03:56:29;;;;;;;18.52;13.57;;;16.40;99.90;;;;;;5049046;28;20037;-60
2021/03/24 03:59:14;;;;;;;19.60;14.10;;;16.40;99.90;;;;;;5047978;28;20029;-60
2021/03/24 04:01:45;;;;;;;19.83;14.60;;;16.40;99.90;;;;;;5036599;28;20044;-60
2021/03/24 04:04:18;;;;;;;18.92;14.20;;;16.40;99.90;;;;;;5049023;28;20025;-60
2021/03/24 04:06:45;;;;;;;23.80;14.30;;;16.30;99.90;;;;;;5048976;28;20021;-60
2021/03/24 04:09:12;;;;;;;16.95;13.30;;;16.40;99.90;;;;;;5048511;28;20060;-60
2021/03/24 04:11:48;;;;;;;17.70;13.93;;;16.40;99.90;;;;;;5048682;28;20594;-60
2021/03/24 04:14:18;;;;;;;21.80;15.00;;;16.30;99.90;;;;;;5037074;28;20476;-60
2021/03/24 04:16:45;;;;;;;22.13;13.65;;;16.30;99.90;;;;;;5048618;28;20154;-61
2021/03/24 04:19:14;;;;;;;18.58;13.38;;;16.30;99.90;;;;;;5047844;28;20396;-60
2021/03/24 04:21:44;;;;;;;18.40;13.68;;;16.30;99.90;;;;;;5047936;28;20130;-60
2021/03/24 04:24:17;;;;;;;23.63;13.80;;;16.30;99.90;;;;;;5048690;28;20485;-59
2021/03/24 04:26:47;;;;;;;18.10;13.55;;;16.30;99.90;;;;;;5048478;28;20032;-59
2021/03/24 04:29:36;;;;;;;19.30;14.13;;;16.30;99.90;;;;;;5041375;27;20037;-61
2021/03/24 04:32:03;;;;;;;17.65;13.68;;;16.30;99.90;;;;;;5043251;28;20538;-60
2021/03/24 04:34:30;;;;;;;17.75;13.13;;;16.20;99.90;;;;;;5047075;28;20120;-60
2021/03/24 04:37:04;;;;;;;19.30;14.40;;;16.20;99.90;;;;;;5048436;28;20104;-60
2021/03/24 04:39:34;;;;;;;19.52;12.68;;;16.20;99.90;;;;;;5039561;28;20037;-60
2021/03/24 04:42:05;;;;;;;19.42;15.07;;;16.20;99.90;;;;;;5047720;28;20033;-60
2021/03/24 04:44:35;;;;;;;22.33;13.93;;;16.20;99.90;;;;;;5048568;28;20029;-60
2021/03/24 04:47:47;;;;;;;18.85;13.20;;;16.20;99.90;;;;;;5047346;28;20045;-60
2021/03/24 04:50:39;;;;;;;19.48;13.57;;;16.20;99.90;;;;;;5045711;28;20036;-60
2021/03/24 04:53:06;;;;;;;20.95;14.40;;;16.10;99.90;;;;;;5048874;28;20036;-60
2021/03/24 04:55:33;;;;;;;17.70;13.38;;;16.10;99.90;;;;;;5048739;28;20104;-59
2021/03/24 04:58:01;;;;;;;18.90;14.38;;;16.10;99.90;;;;;;5048333;28;20025;-58
2021/03/24 05:00:45;;;;;;;21.73;13.98;;;16.10;99.90;;;;;;5046553;28;20167;-60
2021/03/24 05:03:14;;;;;;;18.10;13.35;;;16.10;99.90;;;;;;5048429;28;20032;-60
2021/03/24 05:05:53;;;;;;;19.13;13.27;;;16.00;99.90;;;;;;5047730;28;20037;-60
2021/03/24 05:08:33;;;;;;;16.95;12.90;;;16.00;99.90;;;;;;5048015;28;20061;-61
2021/03/24 05:11:05;;;;;;;17.10;13.27;;;16.00;99.90;;;;;;5035797;28;20040;-60
2021/03/24 05:13:38;;;;;;;20.70;13.45;;;16.00;99.90;;;;;;5049377;28;20077;-60
2021/03/24 05:16:13;;;;;;;19.77;13.20;;;16.00;99.90;;;;;;5052148;28;20114;-60
2021/03/24 05:18:40;;;;;;;18.30;13.07;;;16.00;99.90;;;;;;5050578;27;20041;-60
2021/03/24 05:21:27;;;;;;;19.90;14.02;;;16.00;99.90;;;;;;5040223;28;20025;-60
2021/03/24 05:23:58;;;;;;;21.00;14.25;;;15.90;99.90;;;;;;5034159;28;20033;-61
2021/03/24 05:26:31;;;;;;;17.42;13.23;;;15.90;99.90;;;;;;5031495;28;20029;-61
2021/03/24 05:29:00;;;;;;;22.73;13.25;;;15.90;99.90;;;;;;5034091;28;20017;-61
2021/03/24 05:31:33;;;;;;;20.15;13.77;;;15.90;99.90;;;;;;5051059;28;20113;-58
2021/03/24 05:34:03;;;;;;;19.77;14.30;;;15.90;99.90;;;;;;5051468;28;20037;-58
2021/03/24 05:36:41;;;;;;;16.98;13.07;;;15.90;99.90;;;;;;5051223;28;20029;-58
2021/03/24 05:39:18;;;;;;;17.30;13.18;;;15.90;99.90;;;;;;5050884;28;20021;-59
2021/03/24 05:41:55;;;;;;;19.33;13.55;;;15.90;99.90;;;;;;5041098;28;20454;-58
2021/03/24 05:44:43;;;;;;;21.35;12.73;;;15.90;99.90;;;;;;5050133;28;20112;-59
2021/03/24 05:47:18;;;;;;;18.83;14.18;;;15.90;99.90;;;;;;5050986;28;20036;-58
2021/03/24 05:50:05;;;;;;;18.35;13.30;;;15.90;99.90;;;;;;5042367;28;20029;-60
2021/03/24 05:52:53;;;;;;;17.95;12.60;;;15.80;99.90;;;;;;5050235;28;20040;-60
2021/03/24 05:55:45;;;;;;;21.67;13.20;;;15.80;99.90;;;;;;5051099;28;20459;-60
2021/03/24 05:58:20;;;;;;;16.17;12.70;;;15.80;99.90;;;;;;5052278;28;20041;-60
2021/03/24 06:01:15;;;;;;;17.85;13.07;;;15.80;99.90;;;;;;5045954;28;20368;-60
2021/03/24 06:03:55;;;;;;;17.63;13.20;;;15.80;99.90;;;;;;5054411;28;20081;-60
2021/03/24 06:06:58;;;;;;;16.95;12.48;;;15.80;99.90;;;;;;5031044;28;20022;-60
2021/03/24 06:09:49;;;;;;;18.77;13.30;;;15.70;99.90;;;;;;5036251;28;20415;-60
2021/03/24 06:12:21;;;;;;;18.17;13.05;;;15.70;99.90;;;;;;5046671;28;20400;-60
2021/03/24 06:15:01;;;;;;;20.20;13.70;;;15.70;99.90;;;;;;5049846;28;20476;-60
2021/03/24 06:17:51;;;;;;;20.50;13.27;;;15.70;99.90;;;;;;5050610;28;20029;-60
2021/03/24 06:20:39;;;;;;;18.02;13.65;;;15.70;99.90;;;;;;5038584;28;20086;-60
2021/03/24 06:23:26;;;;;;;18.73;13.88;;;15.70;99.90;;;;;;5048977;28;20400;-60
2021/03/24 06:26:07;;;;;;;17.27;12.68;;;15.70;99.90;;;;;;5037806;28;20353;-60
2021/03/24 06:28:49;;;;;;;21.52;13.27;;;15.60;99.90;;;;;;5050723;28;20090;-60
2021/03/24 06:31:40;;;;;;;17.05;13.07;;;15.60;99.90;;;;;;5050778;28;20037;-60
2021/03/24 06:34:06;;;;;;;16.90;12.90;;;15.70;99.90;;;;;;5050420;28;20153;-60
2021/03/24 06:37:08;;;;;;;19.88;13.20;;;15.60;99.90;;;;;;5050013;28;20187;-60
2021/03/24 06:39:39;;;;;;;16.88;12.77;;;15.60;99.90;;;;;;5049643;28;20107;-60
2021/03/24 06:42:09;;;;;;;18.60;13.25;;;15.60;99.90;;;;;;5049386;28;20025;-60
2021/03/24 06:45:09;;;;;;;20.33;13.45;;;15.60;99.90;;;;;;5049989;28;20021;-59
2021/03/24 06:48:00;;;;;;;19.00;12.95;;;15.60;99.90;;;;;;5035213;28;20041;-60
2021/03/24 06:50:50;;;;;;;45.53;27.35;;;15.70;99.90;;;;;;5049413;28;20384;-60
2021/03/24 06:53:49;;;;;;;50.67;30.90;;;14.90;99.90;;;;;;5042563;28;20025;-60
2021/03/24 06:56:45;;;;;;;55.00;34.45;;;14.20;99.60;;;;;;5049129;28;20428;-60
2021/03/24 06:59:19;;;;;;;59.00;36.47;;;13.90;99.30;;;;;;5049475;28;20540;-60
2021/03/24 07:02:04;;;;;;;56.35;37.03;;;13.60;99.00;;;;;;5050122;28;20033;-60
2021/03/24 07:05:07;;;;;;;60.65;36.72;;;13.40;99.00;;;;;;5049414;28;20078;-60
2021/03/24 07:07:54;;;;;;;58.95;34.78;;;13.30;99.00;;;;;;4967738;28;20043;-60
2021/03/24 07:10:25;;;;;;;45.65;29.70;;;13.60;99.50;;;;;;5025748;28;20034;-59
2021/03/24 07:13:03;;;;;;;43.80;27.67;;;14.10;98.70;;;;;;5029969;28;20062;-60
2021/03/24 07:15:53;;;;;;;38.67;23.60;;;14.40;98.50;;;;;;5039738;28;20451;-60
2021/03/24 07:18:37;;;;;;;34.03;22.55;;;14.70;99.90;;;;;;5040956;28;20030;-60
2021/03/24 07:21:15;;;;;;;34.15;22.70;;;14.80;99.90;;;;;;5030019;28;20017;-60
2021/03/24 07:23:52;;;;;;;30.75;18.30;;;14.80;98.50;;;;;;5030221;28;20078;-60
2021/03/24 07:26:45;;;;;;;30.95;19.42;;;14.80;98.50;;;;;;5045010;28;20025;-60
2021/03/24 07:29:44;;;;;;;27.50;17.95;;;14.80;98.90;;;;;;5049939;28;20036;-60
2021/03/24 07:32:13;;;;;;;25.20;15.85;;;14.90;98.20;;;;;;5049198;28;20025;-61
2021/03/24 07:34:57;;;;;;;26.30;15.57;;;14.90;97.80;;;;;;5049526;28;20507;-60
2021/03/24 07:37:46;;;;;;;21.80;14.43;;;14.90;97.20;;;;;;5042245;28;20029;-60
2021/03/24 07:40:30;;;;;;;23.58;15.85;;;15.00;97.10;;;;;;5047099;28;20082;-60
2021/03/24 07:43:03;;;;;;;21.58;14.07;;;15.00;97.70;;;;;;5049583;28;20022;-60
2021/03/24 07:46:00;;;;;;;23.38;14.82;;;15.00;97.70;;;;;;5048809;28;20032;-60
2021/03/24 07:48:28;;;;;;;20.98;13.88;;;15.00;97.80;;;;;;5047869;28;20029;-60
2021/03/24 07:51:13;;;;;;;21.58;14.13;;;15.00;97.80;;;;;;5048793;28;20354;-60
2021/03/24 07:53:45;;;;;;;20.02;13.88;;;14.90;97.90;;;;;;5049358;28;20036;-61
2021/03/24 07:56:21;;;;;;;22.90;13.63;;;15.00;98.20;;;;;;5048219;28;20029;-59
2021/03/24 07:59:41;;;;;;;20.15;12.77;;;14.90;98.30;;;;;;5042218;28;20034;-60
2021/03/24 08:02:29;;;;;;;22.05;12.20;;;14.90;98.40;;;;;;4988141;28;20466;-60
2021/03/24 08:05:07;;;;;;;21.42;12.63;;;15.10;97.90;;;;;;5026701;28;20033;-59
2021/03/24 08:07:55;;;;;;;18.33;12.18;;;15.10;97.80;;;;;;5029130;28;20037;-60
2021/03/24 08:10:29;;;;;;;18.70;11.95;;;15.10;97.80;;;;;;5047602;28;20069;-60
2021/03/24 08:13:29;;;;;;;19.75;12.25;;;15.20;97.70;;;;;;5049063;28;20029;-60
2021/03/24 08:16:20;;;;;;;19.35;11.25;;;15.20;97.60;;;;;;5049113;28;20049;-60
2021/03/24 08:19:01;;;;;;;16.77;11.40;;;15.30;97.60;;;;;;5043255;28;20029;-60
2021/03/24 08:21:45;;;;;;;15.50;10.60;;;15.30;97.60;;;;;;5029233;28;20029;-60
2021/03/24 08:24:13;;;;;;;;;;;15.30;97.60;;;;;;5029675;28;20037;-60
2021/03/24 08:26:39;;;;;;;15.60;10.35;;;15.30;97.50;;;;;;5029032;28;19938;-60
2021/03/24 08:29:26;;;;;;;18.95;11.70;;;15.30;97.50;;;;;;5031378;28;20034;-61
2021/03/24 08:31:57;;;;;;;16.08;10.57;;;15.30;97.30;;;;;;5028921;28;20033;-60
2021/03/24 08:34:42;;;;;;;16.65;10.20;;;15.40;97.30;;;;;;5028929;28;20057;-60
2021/03/24 08:37:13;;;;;;;19.40;10.77;;;15.40;97.30;;;;;;5028808;28;20046;-61
2021/03/24 08:40:02;;;;;;;15.60;10.75;;;15.40;97.30;;;;;;5037394;28;20504;-60
2021/03/24 08:43:01;;;;;;;14.18;9.50;;;15.50;97.20;;;;;;5048720;28;20036;-61
2021/03/24 08:45:51;;;;;;;15.65;10.35;;;15.50;97.20;;;;;;5048676;28;20017;-60
2021/03/24 08:48:41;;;;;;;15.60;9.80;;;15.50;97.20;;;;;;5049625;28;20029;-60
2021/03/24 08:51:16;;;;;;;15.43;9.18;;;15.60;97.10;;;;;;5046615;28;20029;-61
2021/03/24 08:54:02;;;;;;;13.73;9.20;;;15.60;97.10;;;;;;5052195;28;20508;-60
2021/03/24 08:56:45;;;;;;;11.32;8.15;;;15.60;97.10;;;;;;5052027;28;20485;-60
2021/03/24 08:59:33;;;;;;;15.20;9.50;;;15.70;97.10;;;;;;5048101;28;20034;-60
2021/03/24 09:02:07;;;;;;;15.77;9.73;;;15.70;97.00;;;;;;5032145;28;20029;-60
2021/03/24 09:04:59;;;;;;;13.70;9.05;;;15.80;96.90;;;;;;5032111;28;20112;-60
2021/03/24 09:07:33;;;;;;;13.55;8.48;;;15.80;97.00;;;;;;5032278;28;20033;-60
2021/03/24 09:10:32;;;;;;;12.55;8.32;;;15.80;97.00;;;;;;5041762;28;20028;-60
2021/03/24 09:13:07;;;;;;;13.05;7.97;;;15.90;97.00;;;;;;5051799;28;20112;-60
2021/03/24 09:15:56;;;;;;;14.25;8.70;;;15.90;96.90;;;;;;5051840;28;20082;-60
2021/03/24 09:18:32;;;;;;;12.10;8.45;;;16.00;96.90;;;;;;5051898;28;20021;-60
2021/03/24 09:21:22;;;;;;;13.38;8.77;;;16.00;96.90;;;;;;5033598;28;20030;-60
2021/03/24 09:24:30;;;;;;;11.65;8.02;;;16.10;96.80;;;;;;5032152;28;20025;-60
2021/03/24 09:27:16;;;;;;;13.25;8.25;;;16.10;96.70;;;;;;5031671;28;20379;-60
2021/03/24 09:30:13;;;;;;;12.35;8.02;;;16.20;96.70;;;;;;5038614;28;20109;-59
2021/03/24 09:33:29;;;;;;;14.90;8.25;;;16.30;96.70;;;;;;5051467;28;20361;-59
2021/03/24 09:36:28;;;;;;;9.48;7.05;;;16.30;96.60;;;;;;5060316;28;20086;-58
2021/03/24 09:38:56;;;;;;;15.60;7.72;;;16.40;96.50;;;;;;5037220;28;20067;-60
2021/03/24 09:41:25;;;;;;;11.50;7.63;;;16.50;96.50;;;;;;5031589;28;20139;-59
2021/03/24 09:43:56;;;;;;;9.98;7.18;;;16.50;96.50;;;;;;5031496;28;20029;-59
2021/03/24 09:46:21;;;;;;;11.57;7.57;;;16.50;96.40;;;;;;5031782;28;20488;-60
2021/03/24 09:48:52;;;;;;;13.35;7.72;;;16.60;96.40;;;;;;5043930;28;20037;-62
2021/03/24 09:51:31;;;;;;;11.18;7.05;;;16.60;96.40;;;;;;5051626;28;20021;-63
2021/03/24 09:54:25;;;;;;;11.85;6.88;;;16.60;96.40;;;;;;5050023;28;20053;-60
2021/03/24 09:57:08;;;;;;;12.98;7.78;;;16.70;96.50;;;;;;5051700;28;20029;-60
2021/03/24 10:00:03;;;;;;;10.10;6.65;;;16.70;96.40;;;;;;5031923;28;20033;-60
2021/03/24 10:02:32;;;;;;;14.60;7.43;;;16.80;96.30;;;;;;5039291;28;20079;-60
2021/03/24 10:05:06;;;;;;;10.43;7.10;;;16.80;96.60;;;;;;5030713;28;20045;-60
2021/03/24 10:07:38;;;;;;;10.95;7.10;;;16.90;96.20;;;;;;5032383;28;20036;-60
2021/03/24 10:10:24;;;;;;;11.93;7.00;;;16.90;96.10;;;;;;5050973;28;20117;-60
2021/03/24 10:13:02;;;;;;;9.93;6.32;;;17.00;96.00;;;;;;5051357;28;20021;-60
2021/03/24 10:15:37;;;;;;;10.48;6.70;;;17.10;95.90;;;;;;5051022;28;20151;-60
2021/03/24 10:18:12;;;;;;;10.65;6.90;;;17.10;95.90;;;;;;5044748;28;20035;-60
2021/03/24 10:20:46;;;;;;;10.43;6.30;;;17.10;95.80;;;;;;5029018;28;20082;-63
2021/03/24 10:23:22;;;;;;;13.73;6.43;;;17.20;96.60;;;;;;5030550;28;20036;-62
2021/03/24 10:26:15;;;;;;;20.30;6.45;;;17.30;96.80;;;;;;5030913;28;20105;-62
2021/03/24 10:29:07;;;;;;;11.02;6.10;;;17.40;97.00;;;;;;5039418;28;20404;-62
2021/03/24 10:31:37;;;;;;;9.98;6.63;;;17.40;96.80;;;;;;5050731;28;20021;-62
2021/03/24 10:34:14;;;;;;;11.77;7.40;;;17.50;96.90;;;;;;5050644;28;20136;-61
2021/03/24 10:36:51;;;;;;;9.45;6.25;;;17.50;96.90;;;;;;5050513;28;20021;-62
2021/03/24 10:39:35;;;;;;;11.43;7.78;;;17.60;97.00;;;;;;5034966;28;20021;-61
2021/03/24 10:42:16;;;;;;;12.10;7.57;;;17.60;97.00;;;;;;5030680;28;20030;-60
2021/03/24 10:44:52;;;;;;;12.13;7.60;;;17.70;97.20;;;;;;5030572;28;20263;-61
2021/03/24 10:47:40;;;;;;;10.82;7.47;;;17.80;96.90;;;;;;5030652;28;20041;-61
2021/03/24 10:50:17;;;;;;;11.07;5.97;;;17.80;96.80;;;;;;5030582;28;20029;-62
2021/03/24 10:53:01;;;;;;;11.57;7.32;;;17.80;96.50;;;;;;5030573;28;20025;-61
2021/03/24 10:55:29;;;;;;;10.95;6.90;;;17.90;96.30;;;;;;5030414;28;20407;-61
2021/03/24 10:58:08;;;;;;;9.10;6.05;;;17.90;96.30;;;;;;5033991;28;20495;-61
2021/03/24 11:00:49;;;;;;;7.90;6.18;;;17.90;96.00;;;;;;5049047;28;20037;-62
2021/03/24 11:03:19;;;;;;;8.32;5.80;;;18.00;96.10;;;;;;5030345;28;20021;-63
2021/03/24 11:05:59;;;;;;;11.35;6.68;;;18.00;95.80;;;;;;5030201;28;20022;-62
2021/03/24 11:09:07;;;;;;;9.25;5.95;;;18.00;95.60;;;;;;5038193;28;20037;-61
2021/03/24 11:12:07;;;;;;;9.13;6.32;;;18.10;95.40;;;;;;5048986;28;20025;-62
2021/03/24 11:14:39;;;;;;;7.55;5.82;;;18.10;95.30;;;;;;5061137;28;20485;-61
2021/03/24 11:17:09;;;;;;;8.20;5.50;;;18.10;95.20;;;;;;5050070;28;20112;-61
2021/03/24 11:19:38;;;;;;;9.85;6.35;;;18.20;95.10;;;;;;5032783;28;20484;-62
2021/03/24 11:22:27;;;;;;;10.50;6.18;;;18.30;95.30;;;;;;5029964;28;20066;-62
2021/03/24 11:25:19;;;;;;;9.68;6.22;;;18.30;95.10;;;;;;5033347;28;20049;-61
2021/03/24 11:27:55;;;;;;;8.10;5.50;;;18.30;95.00;;;;;;5035298;28;20090;-61
2021/03/24 11:30:45;;;;;;;10.40;6.03;;;18.30;94.90;;;;;;5029912;28;20032;-63
2021/03/24 11:33:44;;;;;;;9.88;5.63;;;18.40;94.90;;;;;;5034090;27;20104;-61
2021/03/24 11:36:09;;;;;;;9.93;6.05;;;18.40;95.10;;;;;;5037686;28;20029;-62
2021/03/24 11:38:56;;;;;;;7.53;5.53;;;18.50;94.80;;;;;;5048470;28;20052;-62
2021/03/24 11:41:25;;;;;;;9.38;6.03;;;18.50;95.00;;;;;;5029563;28;20021;-61
2021/03/24 11:43:58;;;;;;;9.45;5.82;;;18.50;94.80;;;;;;5039124;28;20032;-61
2021/03/24 11:46:27;;;;;;;7.28;5.22;;;18.50;94.70;;;;;;5049814;28;20055;-63
2021/03/24 11:49:02;;;;;;;8.55;5.60;;;18.60;94.70;;;;;;5048333;28;20407;-63
2021/03/24 11:51:59;;;;;;;9.63;5.43;;;18.60;94.60;;;;;;5049692;28;20048;-63
2021/03/24 11:54:33;;;;;;;8.65;5.68;;;18.70;94.80;;;;;;5049595;28;20056;-62
2021/03/24 11:57:26;;;;;;;7.38;5.40;;;18.70;94.50;;;;;;5049339;28;20044;-62
2021/03/24 11:59:57;;;;;;;7.88;5.50;;;18.80;94.50;;;;;;5046676;28;20104;-63
2021/03/24 12:02:50;;;;;;;9.50;5.95;;;18.80;94.40;;;;;;5029418;28;20460;-63
2021/03/24 12:05:24;;;;;;;8.23;5.18;;;18.80;94.50;;;;;;5047211;28;20025;-61
2021/03/24 12:08:28;;;;;;;7.53;5.40;;;18.90;94.80;;;;;;5034064;28;20060;-61
2021/03/24 12:11:20;;;;;;;9.15;5.63;;;18.90;94.60;;;;;;5029185;28;20065;-62
2021/03/24 12:13:46;;;;;;;7.45;5.40;;;18.90;94.40;;;;;;5036009;28;20039;-62
2021/03/24 12:16:19;;;;;;;8.57;5.18;;;18.90;94.50;;;;;;5048546;28;20037;-62
2021/03/24 12:18:44;;;;;;;8.60;5.20;;;18.90;94.40;;;;;;5048182;28;20082;-62
2021/03/24 12:21:30;;;;;;;8.00;5.78;;;18.90;94.30;;;;;;5037103;28;20051;-62
2021/03/24 12:24:00;;;;;;;12.73;7.18;;;19.00;94.40;;;;;;5039066;28;20380;-63
2021/03/24 12:26:35;;;;;;;15.15;7.72;;;19.00;94.50;;;;;;5041738;28;20081;-63
2021/03/24 12:29:14;;;;;;;14.68;8.18;;;19.00;94.60;;;;;;5037860;28;20029;-63
2021/03/24 12:31:55;;;;;;;15.48;8.60;;;19.10;94.60;;;;;;5041880;28;20046;-63
2021/03/24 12:34:23;;;;;;;15.07;8.38;;;19.10;94.70;;;;;;5038157;28;20053;-62
2021/03/24 12:36:55;;;;;;;15.48;9.07;;;19.10;94.70;;;;;;5037162;28;20033;-62
2021/03/24 12:39:41;;;;;;;17.52;8.55;;;19.10;94.70;;;;;;5039177;28;20796;-62
2021/03/24 12:42:19;;;;;;;16.52;9.25;;;19.20;94.70;;;;;;5038140;28;20017;-62
2021/03/24 12:44:46;;;;;;;14.68;8.77;;;19.20;94.80;;;;;;5031786;28;20029;-62
2021/03/24 12:47:26;;;;;;;16.33;8.48;;;19.30;94.80;;;;;;5041526;28;20029;-62
2021/03/24 12:50:14;;;;;;;15.25;8.43;;;19.30;94.80;;;;;;5048017;28;20077;-63
2021/03/24 12:53:02;;;;;;;15.50;8.35;;;19.30;94.80;;;;;;5048604;28;20029;-61
2021/03/24 12:55:28;;;;;;;15.02;7.97;;;19.30;94.80;;;;;;5046865;28;20031;-62
2021/03/24 12:58:16;;;;;;;14.95;8.10;;;19.30;94.70;;;;;;5032355;28;20028;-61
2021/03/24 13:01:03;;;;;;;14.65;7.95;;;19.40;94.70;;;;;;5048476;28;20036;-63
2021/03/24 13:03:53;;;;;;;13.02;7.70;;;19.40;94.70;;;;;;5048311;28;20025;-62
2021/03/24 13:06:51;;;;;;;14.13;7.35;;;19.50;95.00;;;;;;5037076;28;20457;-63
2021/03/24 13:09:28;;;;;;;13.98;7.57;;;20.00;95.40;;;;;;5048564;28;20063;-62
2021/03/24 13:12:18;;;;;;;14.25;6.70;;;20.40;95.60;;;;;;5044611;28;20096;-63
2021/03/24 13:14:46;;;;;;;13.05;6.88;;;20.60;95.70;;;;;;5044335;28;20111;-62
2021/03/24 13:17:17;;;;;;;15.35;6.90;;;20.80;95.60;;;;;;5048162;28;20024;-62
2021/03/24 13:20:07;;;;;;;13.25;6.75;;;20.90;95.90;;;;;;5048028;28;20130;-60
2021/03/24 13:23:11;;;;;;;13.15;6.70;;;21.00;95.60;;;;;;5048365;28;20117;-61
2021/03/24 13:25:53;;;;;;;13.18;6.40;;;21.20;95.90;;;;;;5032419;28;20029;-61
2021/03/24 13:28:49;;;;;;;11.77;6.60;;;21.20;95.90;;;;;;5028478;28;20046;-62
2021/03/24 13:31:59;;;;;;;17.77;6.68;;;21.30;95.80;;;;;;5030485;28;20495;-61
2021/03/24 13:34:38;;;;;;;11.52;6.07;;;21.50;95.90;;;;;;5035746;28;20168;-63
2021/03/24 13:37:04;;;;;;;9.82;6.10;;;21.60;95.90;;;;;;5051110;28;20496;-62
2021/03/24 13:39:39;;;;;;;9.60;5.68;;;21.60;96.00;;;;;;5051718;28;20483;-62